Time;durP1;ratioP1;P1;durP2;ratioP2;P2;SDS_P1;SDS_P2;PMS_P1;PMS_P2;Temp;Humidity;BMP_temperature;BMP_pressure;BME280_temperature;BME280_humidity;BME280_pressure;Samples;Min_cycle;Max_cycle;Signal;HPM_P1;HPM_P2
2022/11/07 00:02:18;;;;;;;12.27;4.65;;;11.10;99.90;;;;;;5019482;28;20032;-91
2022/11/07 00:04:44;;;;;;;8.82;4.35;;;10.60;99.90;;;;;;5052720;28;20051;-91
2022/11/07 00:07:10;;;;;;;11.90;4.35;;;10.70;99.90;;;;;;5035046;28;20071;-93
2022/11/07 00:09:35;;;;;;;12.32;4.32;;;10.70;99.90;;;;;;5052764;28;20058;-91
2022/11/07 00:12:01;;;;;;;11.68;3.90;;;10.70;99.90;;;;;;5033808;28;20490;-93
2022/11/07 00:14:27;;;;;;;6.35;3.53;;;11.20;99.90;;;;;;5052278;28;20062;-90
2022/11/07 00:16:53;;;;;;;7.60;4.18;;;10.90;99.90;;;;;;5066658;28;20048;-90
2022/11/07 00:19:20;;;;;;;16.85;3.85;;;11.00;99.90;;;;;;5018843;28;20044;-89
2022/11/07 00:21:47;;;;;;;11.48;4.20;;;10.80;99.90;;;;;;5050948;28;20040;-92
2022/11/07 00:24:18;;;;;;;9.98;3.75;;;11.70;99.90;;;;;;5067823;28;20104;-90
2022/11/07 00:26:47;;;;;;;12.27;4.00;;;10.80;99.90;;;;;;5051990;28;20051;-91
2022/11/07 00:29:14;;;;;;;6.55;3.60;;;10.90;99.90;;;;;;5050003;28;20078;-90
2022/11/07 00:31:40;;;;;;;10.13;4.13;;;10.90;99.90;;;;;;5051852;28;20044;-91
2022/11/07 00:34:06;;;;;;;8.18;4.13;;;11.90;99.90;;;;;;5033493;28;20113;-90
2022/11/07 00:36:32;;;;;;;7.30;3.88;;;10.90;99.90;;;;;;5051498;28;20055;-91
2022/11/07 00:38:57;;;;;;;8.55;3.47;;;11.60;99.90;;;;;;5049927;28;20040;-89
2022/11/07 00:41:23;;;;;;;8.35;4.10;;;11.00;99.90;;;;;;5050883;28;20048;-89
2022/11/07 00:43:49;;;;;;;15.05;5.05;;;11.10;99.90;;;;;;5051191;28;20078;-90
2022/11/07 00:46:16;;;;;;;10.50;3.65;;;11.10;99.90;;;;;;5049829;28;20079;-91
2022/11/07 00:48:42;;;;;;;10.77;3.60;;;11.10;99.90;;;;;;5034991;28;20040;-90
2022/11/07 00:51:17;;;;;;;7.38;3.60;;;11.00;99.90;;;;;;5065925;28;20093;-92
2022/11/07 00:53:43;;;;;;;11.73;4.35;;;11.00;99.90;;;;;;5051243;28;20055;-90
2022/11/07 00:56:14;;;;;;;12.38;3.70;;;11.00;99.90;;;;;;5050322;28;20044;-92
2022/11/07 00:58:41;;;;;;;5.50;3.40;;;11.30;99.90;;;;;;5050242;28;20188;-91
2022/11/07 01:01:14;;;;;;;11.73;3.50;;;11.50;99.90;;;;;;5051093;28;20066;-91
2022/11/07 01:06:30;;;;;;;11.02;3.47;;;11.00;99.90;;;;;;5067538;28;20069;-90
2022/11/07 01:08:59;;;;;;;8.18;3.60;;;11.00;99.90;;;;;;5049626;28;20051;-92
2022/11/07 01:11:27;;;;;;;14.60;3.70;;;11.70;99.90;;;;;;5050259;28;20403;-90
2022/11/07 01:14:00;;;;;;;9.98;3.50;;;11.20;99.90;;;;;;5050539;28;20498;-89
2022/11/07 01:16:28;;;;;;;10.48;3.45;;;11.00;99.90;;;;;;5049428;28;20055;-89
2022/11/07 01:18:54;;;;;;;13.93;3.13;;;11.00;99.90;;;;;;5051020;28;20044;-90
2022/11/07 01:21:20;;;;;;;7.70;3.40;;;10.90;99.90;;;;;;5049475;28;20032;-91
2022/11/07 01:23:45;;;;;;;8.82;3.70;;;11.00;99.90;;;;;;5034734;28;20036;-93
2022/11/07 01:26:12;;;;;;;11.02;3.58;;;11.80;99.90;;;;;;5020061;28;20047;-92
2022/11/07 01:28:38;;;;;;;9.70;3.00;;;11.60;99.90;;;;;;5054389;28;20146;-90
2022/11/07 01:31:05;;;;;;;14.23;3.10;;;12.00;99.90;;;;;;5055411;28;20036;-89
2022/11/07 01:33:32;;;;;;;14.40;3.13;;;11.20;99.90;;;;;;5053678;28;20525;-91
2022/11/07 01:36:08;;;;;;;13.02;3.90;;;12.20;99.90;;;;;;5022225;28;20047;-92
2022/11/07 01:38:42;;;;;;;15.70;4.40;;;11.10;99.90;;;;;;5053987;28;20048;-93
2022/11/07 01:41:19;;;;;;;10.55;3.50;;;11.10;99.90;;;;;;5055194;28;20079;-94
2022/11/07 01:43:54;;;;;;;9.93;4.18;;;11.60;99.90;;;;;;5054683;28;20043;-93
2022/11/07 01:46:24;;;;;;;10.48;3.40;;;11.10;99.90;;;;;;5053476;28;20582;-93
2022/11/07 01:49:13;;;;;;;10.60;3.38;;;11.10;99.90;;;;;;5054627;28;20050;-90
2022/11/07 01:52:08;;;;;;;12.52;3.80;;;11.30;99.90;;;;;;5052716;28;20097;-93
2022/11/07 01:54:53;;;;;;;8.77;3.13;;;11.00;99.90;;;;;;5053924;28;20048;-90
2022/11/07 01:57:27;;;;;;;15.40;3.95;;;12.00;99.90;;;;;;5054447;28;20074;-92
2022/11/07 01:59:57;;;;;;;14.02;3.83;;;10.30;99.90;;;;;;5053410;28;20084;-92
2022/11/07 02:02:25;;;;;;;9.32;3.03;;;11.00;99.90;;;;;;5071539;28;20052;-93
2022/11/07 02:04:52;;;;;;;7.20;3.17;;;11.60;99.90;;;;;;5037559;28;20039;-95
2022/11/07 02:07:20;;;;;;;11.57;4.65;;;11.00;99.90;;;;;;5054830;28;20063;-91
2022/11/07 02:09:48;;;;;;;10.05;2.85;;;11.80;99.90;;;;;;5055644;28;20506;-94
2022/11/07 02:12:15;;;;;;;8.43;3.65;;;11.60;99.90;;;;;;5057724;28;20060;-92
2022/11/07 02:14:42;;;;;;;11.30;3.72;;;11.10;99.90;;;;;;5023902;28;20044;-92
2022/11/07 02:17:09;;;;;;;5.63;2.70;;;11.70;99.90;;;;;;5057179;28;20044;-95
2022/11/07 02:19:41;;;;;;;11.50;3.10;;;11.20;99.90;;;;;;5031435;28;20044;-91
2022/11/07 02:22:31;;;;;;;6.90;2.67;;;11.10;99.90;;;;;;5059415;28;20123;-94
2022/11/07 02:25:01;;;;;;;16.85;3.40;;;11.10;99.90;;;;;;5059348;28;20149;-93
2022/11/07 02:27:30;;;;;;;12.30;2.88;;;11.30;99.90;;;;;;5059124;28;20040;-91
2022/11/07 02:30:09;;;;;;;18.05;3.35;;;11.00;99.90;;;;;;5057117;28;20047;-92
2022/11/07 02:32:36;;;;;;;7.82;2.47;;;11.10;99.90;;;;;;5073545;28;20036;-92
2022/11/07 02:35:23;;;;;;;4.43;1.83;;;11.00;99.90;;;;;;5072941;28;20456;-91
2022/11/07 02:37:49;;;;;;;11.25;3.20;;;10.90;99.90;;;;;;5055587;28;20070;-91
2022/11/07 02:40:15;;;;;;;11.73;3.08;;;11.00;99.90;;;;;;5024853;28;20510;-92
2022/11/07 02:42:44;;;;;;;15.15;2.67;;;11.00;99.90;;;;;;5023924;28;20044;-91
2022/11/07 02:45:22;;;;;;;8.57;2.13;;;12.00;99.90;;;;;;5039788;28;20051;-92
2022/11/07 02:47:48;;;;;;;12.27;2.97;;;11.10;99.90;;;;;;5054532;28;20044;-91
2022/11/07 02:50:15;;;;;;;12.63;1.92;;;11.80;99.90;;;;;;5036733;28;20070;-92
2022/11/07 02:52:41;;;;;;;10.02;2.15;;;10.50;99.90;;;;;;5053696;28;20050;-92
2022/11/07 02:55:08;;;;;;;9.98;2.08;;;11.10;99.90;;;;;;5052492;28;20070;-93
2022/11/07 02:57:34;;;;;;;10.18;2.03;;;11.10;99.90;;;;;;5053735;28;20079;-93
2022/11/07 03:00:00;;;;;;;16.80;2.55;;;11.00;99.90;;;;;;5036358;28;20140;-94
2022/11/07 03:02:26;;;;;;;9.27;2.13;;;11.00;99.90;;;;;;5053668;28;20047;-90
2022/11/07 03:04:52;;;;;;;21.70;2.95;;;11.30;99.90;;;;;;5036283;28;20040;-93
2022/11/07 03:07:18;;;;;;;10.02;3.03;;;11.70;99.90;;;;;;5053877;28;20044;-94
2022/11/07 03:09:44;;;;;;;8.68;2.35;;;11.10;99.90;;;;;;5020018;28;20089;-92
2022/11/07 03:12:09;;;;;;;13.07;2.13;;;11.00;99.90;;;;;;5052030;28;20040;-91
2022/11/07 03:14:35;;;;;;;4.97;1.77;;;11.10;99.90;;;;;;5036225;28;20490;-91
2022/11/07 03:17:01;;;;;;;8.48;2.10;;;11.00;99.90;;;;;;5051824;28;20044;-92
2022/11/07 03:19:27;;;;;;;7.88;1.90;;;12.00;99.90;;;;;;5036481;28;20113;-92
2022/11/07 03:21:53;;;;;;;13.18;1.63;;;11.00;99.90;;;;;;5019543;28;20065;-91
2022/11/07 03:24:18;;;;;;;14.10;2.25;;;11.60;99.90;;;;;;5053039;28;20464;-91
2022/11/07 03:26:44;;;;;;;12.52;1.83;;;11.10;99.90;;;;;;5036371;28;20044;-90
2022/11/07 03:29:10;;;;;;;12.52;2.05;;;11.10;99.90;;;;;;5019630;28;20073;-92
2022/11/07 03:31:35;;;;;;;10.88;2.60;;;12.00;99.90;;;;;;5036661;28;20044;-93
2022/11/07 03:34:01;;;;;;;14.02;3.30;;;12.00;99.90;;;;;;5051886;28;20067;-93
2022/11/07 03:36:27;;;;;;;11.35;1.85;;;12.00;99.90;;;;;;5053074;28;20131;-92
2022/11/07 03:38:53;;;;;;;9.57;2.30;;;11.60;99.90;;;;;;5051673;28;20090;-92
2022/11/07 03:41:19;;;;;;;10.32;2.83;;;11.20;99.90;;;;;;5036124;28;20047;-94
2022/11/07 03:43:45;;;;;;;11.80;2.30;;;11.10;99.90;;;;;;5036538;28;20051;-92
2022/11/07 03:46:11;;;;;;;9.82;2.40;;;11.70;99.90;;;;;;5037745;28;20487;-94
2022/11/07 03:48:37;;;;;;;10.38;1.95;;;11.10;99.90;;;;;;5021075;28;20130;-93
2022/11/07 03:51:04;;;;;;;6.38;1.75;;;12.00;99.90;;;;;;5052237;28;20048;-94
2022/11/07 03:53:30;;;;;;;10.70;2.58;;;11.00;99.90;;;;;;5037279;28;20525;-92
2022/11/07 03:55:56;;;;;;;11.15;2.30;;;11.90;99.90;;;;;;5035160;28;20040;-94
2022/11/07 03:58:23;;;;;;;9.23;2.13;;;11.50;99.90;;;;;;5037808;28;20040;-94
2022/11/07 04:00:49;;;;;;;11.15;2.05;;;10.80;99.90;;;;;;5019065;28;20127;-92
2022/11/07 04:03:14;;;;;;;10.63;1.63;;;11.70;99.90;;;;;;5036007;28;20132;-93
2022/11/07 04:05:40;;;;;;;9.55;2.42;;;11.70;99.90;;;;;;5036020;28;20059;-94
2022/11/07 04:08:06;;;;;;;11.45;1.98;;;11.40;99.90;;;;;;5035487;28;20505;-90
2022/11/07 04:10:32;;;;;;;11.57;2.30;;;11.60;99.90;;;;;;5036115;28;20084;-94
2022/11/07 04:18:28;;;;;;;9.52;1.85;;;11.90;99.90;;;;;;5057627;28;20122;-96
2022/11/07 04:20:53;;;;;;;12.73;2.15;;;10.90;99.90;;;;;;5035789;28;20062;-95
2022/11/07 04:23:19;;;;;;;10.30;2.92;;;11.00;99.90;;;;;;5020103;28;20043;-93
2022/11/07 04:28:29;;;;;;;12.63;2.17;;;11.50;99.90;;;;;;5057409;28;20070;-96
2022/11/07 04:30:55;;;;;;;14.68;2.75;;;11.30;99.90;;;;;;5022093;28;20039;-92
2022/11/07 04:33:20;;;;;;;11.27;3.58;;;10.80;99.90;;;;;;5054461;28;20460;-95
2022/11/07 04:35:46;;;;;;;9.75;2.10;;;11.80;99.90;;;;;;5036179;28;20099;-95
2022/11/07 04:38:12;;;;;;;11.65;2.85;;;10.80;99.90;;;;;;5051615;28;20040;-94
2022/11/07 04:40:38;;;;;;;16.60;2.50;;;11.60;99.90;;;;;;5035489;28;20048;-94
2022/11/07 04:43:07;;;;;;;10.63;2.03;;;10.70;99.90;;;;;;5050895;28;20048;-91
2022/11/07 04:45:37;;;;;;;23.63;3.67;;;11.20;99.90;;;;;;5052474;28;20105;-94
2022/11/07 04:48:03;;;;;;;9.98;2.17;;;11.70;99.90;;;;;;5051387;28;20105;-90
2022/11/07 04:50:29;;;;;;;13.65;2.47;;;10.70;99.90;;;;;;5018439;28;20476;-92
2022/11/07 04:52:55;;;;;;;16.67;2.40;;;11.10;99.90;;;;;;5034117;28;20131;-90
2022/11/07 04:55:26;;;;;;;14.07;2.70;;;10.90;99.90;;;;;;5034130;28;20043;-91
2022/11/07 04:57:52;;;;;;;13.90;3.40;;;10.80;99.90;;;;;;5051020;28;20036;-93
2022/11/07 05:00:19;;;;;;;10.00;2.33;;;11.00;99.90;;;;;;5033564;28;20152;-91
2022/11/07 05:02:45;;;;;;;9.27;2.42;;;10.90;99.90;;;;;;5067990;28;20040;-92
2022/11/07 05:05:11;;;;;;;14.52;2.58;;;10.90;99.90;;;;;;5034164;28;20039;-94
2022/11/07 05:07:37;;;;;;;8.35;2.13;;;11.70;99.90;;;;;;5018567;28;20094;-93
2022/11/07 05:10:04;;;;;;;11.63;3.00;;;11.60;99.90;;;;;;5034816;28;20418;-90
2022/11/07 05:12:32;;;;;;;15.48;2.50;;;10.90;99.90;;;;;;5068454;28;20383;-95
2022/11/07 05:14:58;;;;;;;11.82;3.25;;;10.90;99.90;;;;;;5039835;28;20044;-94
2022/11/07 05:17:24;;;;;;;18.90;3.30;;;10.90;99.90;;;;;;5020692;28;20075;-94
2022/11/07 05:19:50;;;;;;;13.27;2.75;;;10.90;99.90;;;;;;5037858;28;20767;-96
2022/11/07 05:25:01;;;;;;;8.55;2.53;;;10.80;99.90;;;;;;5057057;28;20048;-94
2022/11/07 05:27:26;;;;;;;17.42;3.15;;;10.80;99.90;;;;;;5023197;28;20101;-96
2022/11/07 05:29:52;;;;;;;12.07;2.28;;;10.20;99.90;;;;;;5027895;28;20135;-92
2022/11/07 05:32:18;;;;;;;14.48;3.00;;;10.70;99.90;;;;;;5022816;28;20047;-94
2022/11/07 05:34:44;;;;;;;15.27;3.97;;;10.60;99.90;;;;;;5018946;28;20052;-93
2022/11/07 05:37:11;;;;;;;12.00;2.38;;;10.70;99.90;;;;;;5051251;28;20040;-93
2022/11/07 05:39:37;;;;;;;9.73;2.80;;;10.70;99.90;;;;;;5017375;28;20090;-93
2022/11/07 05:42:03;;;;;;;15.50;3.08;;;10.60;99.90;;;;;;5051937;28;20043;-92
2022/11/07 05:44:31;;;;;;;17.27;2.90;;;10.60;99.90;;;;;;5035181;28;20556;-91
2022/11/07 05:46:58;;;;;;;16.65;3.72;;;10.60;99.90;;;;;;5050875;28;20040;-92
2022/11/07 05:49:24;;;;;;;9.52;3.05;;;11.20;99.90;;;;;;5034711;28;20084;-91
2022/11/07 05:51:49;;;;;;;10.50;2.72;;;10.60;99.90;;;;;;5050180;28;20044;-92
2022/11/07 05:54:15;;;;;;;12.80;3.35;;;10.60;99.90;;;;;;5034916;28;20131;-88
2022/11/07 05:56:42;;;;;;;14.63;3.20;;;10.90;99.90;;;;;;5085691;28;20051;-89
2022/11/07 05:59:09;;;;;;;14.00;3.00;;;11.20;99.90;;;;;;5037792;28;20585;-90
2022/11/07 06:01:35;;;;;;;15.57;2.90;;;10.60;99.90;;;;;;5051619;28;20429;-90
2022/11/07 06:04:03;;;;;;;11.73;3.03;;;10.60;99.90;;;;;;5053004;28;20103;-87
2022/11/07 06:06:32;;;;;;;7.85;3.45;;;10.60;99.90;;;;;;5069668;28;20044;-89
2022/11/07 06:08:58;;;;;;;11.32;3.88;;;10.80;99.90;;;;;;5045026;28;20040;-95
2022/11/07 06:11:24;;;;;;;11.93;3.58;;;10.70;99.90;;;;;;5063212;28;20036;-96
2022/11/07 06:13:53;;;;;;;16.55;4.05;;;10.80;99.90;;;;;;5036412;28;20260;-96
2022/11/07 06:16:19;;;;;;;14.25;3.90;;;10.70;99.90;;;;;;5040185;28;20316;-90
2022/11/07 06:18:44;;;;;;;10.52;3.30;;;10.70;99.90;;;;;;5092727;28;20410;-95
2022/11/07 06:21:10;;;;;;;16.00;4.15;;;10.90;99.90;;;;;;5021641;28;20040;-96
2022/11/07 06:23:36;;;;;;;16.90;3.67;;;10.70;99.90;;;;;;5020999;28;20054;-92
2022/11/07 06:26:02;;;;;;;9.35;3.60;;;10.70;99.90;;;;;;5038456;28;20114;-92
2022/11/07 06:28:27;;;;;;;9.40;3.00;;;10.70;99.90;;;;;;5019680;28;20036;-92
2022/11/07 06:30:57;;;;;;;7.03;3.15;;;10.70;99.90;;;;;;5037554;28;20044;-89
2022/11/07 06:33:24;;;;;;;9.93;3.33;;;10.80;99.90;;;;;;5069856;28;20040;-89
2022/11/07 06:35:50;;;;;;;16.10;3.70;;;10.70;99.90;;;;;;5053632;28;20517;-87
2022/11/07 06:38:15;;;;;;;14.63;3.55;;;11.50;99.90;;;;;;5071181;28;20048;-93
2022/11/07 06:40:41;;;;;;;9.52;3.40;;;10.70;99.90;;;;;;5019278;28;20044;-90
2022/11/07 06:43:10;;;;;;;13.15;3.70;;;11.20;99.90;;;;;;5053908;28;20127;-92
2022/11/07 06:45:37;;;;;;;11.60;3.20;;;10.70;99.90;;;;;;5052766;28;20127;-90
2022/11/07 06:48:03;;;;;;;6.35;3.30;;;11.10;99.90;;;;;;5038777;28;20047;-90
2022/11/07 06:50:29;;;;;;;11.95;3.20;;;10.70;99.90;;;;;;5036162;28;20044;-90
2022/11/07 06:52:54;;;;;;;15.77;4.30;;;11.50;99.90;;;;;;5020845;28;20044;-89
2022/11/07 06:55:20;;;;;;;17.08;4.18;;;10.70;99.90;;;;;;5052952;28;20051;-91
2022/11/07 06:57:47;;;;;;;10.50;2.90;;;11.80;99.90;;;;;;5036134;28;20367;-91
2022/11/07 07:00:13;;;;;;;15.25;3.00;;;10.70;99.90;;;;;;5070599;28;20399;-91
2022/11/07 07:02:39;;;;;;;10.82;2.67;;;10.70;99.90;;;;;;5034875;28;20487;-91
2022/11/07 07:05:05;;;;;;;11.00;3.03;;;11.40;99.90;;;;;;5037620;28;20051;-91
2022/11/07 07:07:31;;;;;;;17.27;3.40;;;10.70;99.90;;;;;;5034964;28;20507;-90
2022/11/07 07:09:57;;;;;;;10.30;2.65;;;10.70;99.90;;;;;;5053236;28;20079;-91
2022/11/07 07:12:23;;;;;;;11.50;2.90;;;10.70;99.90;;;;;;5019609;28;20056;-88
2022/11/07 07:14:49;;;;;;;15.00;3.22;;;11.70;99.90;;;;;;5069424;28;20044;-90
2022/11/07 07:17:14;;;;;;;10.90;2.83;;;10.80;99.90;;;;;;5069335;28;20256;-90
2022/11/07 07:19:40;;;;;;;8.70;2.33;;;11.10;99.90;;;;;;5034664;28;20052;-90
2022/11/07 07:22:11;;;;;;;10.40;2.65;;;11.00;99.90;;;;;;5036981;28;20131;-94
2022/11/07 07:24:37;;;;;;;10.30;3.22;;;10.90;99.90;;;;;;5051677;28;20115;-91
2022/11/07 07:27:02;;;;;;;7.35;2.80;;;11.10;99.90;;;;;;5036767;28;20568;-92
2022/11/07 07:29:28;;;;;;;11.95;3.90;;;10.80;99.90;;;;;;5035171;28;20609;-91
2022/11/07 07:31:54;;;;;;;9.20;2.55;;;10.80;99.90;;;;;;5018994;28;20075;-91
2022/11/07 07:34:19;;;;;;;11.65;3.17;;;10.90;99.90;;;;;;5019552;28;20039;-92
2022/11/07 07:36:45;;;;;;;11.38;3.13;;;10.90;99.90;;;;;;5018224;28;20036;-91
2022/11/07 07:39:11;;;;;;;8.63;3.35;;;10.80;99.90;;;;;;5053637;28;20040;-91
2022/11/07 07:41:36;;;;;;;16.70;4.78;;;10.90;99.90;;;;;;5017659;28;20048;-91
2022/11/07 07:44:02;;;;;;;15.50;4.43;;;10.90;99.90;;;;;;5053414;28;20047;-91
2022/11/07 07:46:28;;;;;;;12.20;3.80;;;10.90;99.90;;;;;;5034149;28;20048;-91
2022/11/07 07:48:53;;;;;;;13.75;4.97;;;11.00;99.90;;;;;;5052375;28;20036;-91
2022/11/07 07:51:19;;;;;;;11.85;4.63;;;11.00;99.90;;;;;;5018643;28;20534;-91
2022/11/07 07:53:45;;;;;;;18.85;4.88;;;11.00;99.90;;;;;;5067794;28;20044;-93
2022/11/07 07:56:11;;;;;;;19.13;4.85;;;11.20;99.90;;;;;;5019868;28;20246;-94
2022/11/07 07:58:36;;;;;;;15.07;4.75;;;11.00;99.90;;;;;;5035540;28;20079;-94
2022/11/07 08:01:08;;;;;;;12.98;5.85;;;11.00;99.90;;;;;;5054327;28;20040;-93
2022/11/07 08:03:35;;;;;;;18.17;5.43;;;11.40;99.90;;;;;;5037089;28;20040;-92
2022/11/07 08:06:01;;;;;;;13.85;5.53;;;11.10;99.90;;;;;;5053441;28;20044;-94
2022/11/07 08:08:27;;;;;;;18.23;5.00;;;11.10;99.90;;;;;;5051917;28;20157;-92
2022/11/07 08:10:58;;;;;;;14.82;5.13;;;11.10;99.90;;;;;;5019862;28;20086;-93
2022/11/07 08:13:25;;;;;;;16.13;5.25;;;11.70;99.90;;;;;;5037298;28;20094;-92
2022/11/07 08:15:52;;;;;;;11.63;5.15;;;11.10;99.90;;;;;;5036225;28;20345;-93
2022/11/07 08:18:20;;;;;;;13.32;4.97;;;11.30;99.90;;;;;;5044824;28;20055;-93
2022/11/07 08:20:49;;;;;;;16.58;5.05;;;11.10;99.90;;;;;;5056472;28;20044;-91
2022/11/07 08:23:15;;;;;;;13.27;5.85;;;11.10;99.90;;;;;;5039737;28;20585;-93
2022/11/07 08:25:40;;;;;;;15.02;5.43;;;11.20;99.90;;;;;;5020425;28;20048;-94
2022/11/07 08:28:07;;;;;;;17.38;5.18;;;11.20;99.90;;;;;;5019941;28;20044;-93
2022/11/07 08:30:34;;;;;;;17.15;6.85;;;11.20;99.90;;;;;;5020938;28;20076;-93
2022/11/07 08:33:02;;;;;;;14.70;5.25;;;11.20;99.90;;;;;;5052646;28;20110;-93
2022/11/07 08:35:28;;;;;;;18.73;4.80;;;11.20;99.90;;;;;;5053355;28;20047;-93
2022/11/07 08:37:54;;;;;;;20.98;5.07;;;11.20;99.90;;;;;;5052366;28;20040;-93
2022/11/07 08:40:20;;;;;;;18.40;5.18;;;11.30;99.90;;;;;;5037028;28;20055;-94
2022/11/07 08:42:46;;;;;;;11.63;5.07;;;11.30;99.90;;;;;;5032575;28;20040;-92
2022/11/07 08:45:12;;;;;;;25.17;5.65;;;11.70;99.90;;;;;;5052514;28;20039;-92
2022/11/07 08:47:38;;;;;;;17.02;4.70;;;11.30;99.90;;;;;;5070146;28;20078;-93
2022/11/07 08:50:04;;;;;;;18.73;6.05;;;11.30;99.90;;;;;;5024389;28;20048;-93
2022/11/07 08:52:30;;;;;;;19.35;5.18;;;11.30;99.90;;;;;;5055217;28;20040;-94
2022/11/07 08:54:56;;;;;;;20.90;5.22;;;11.30;99.90;;;;;;5060052;28;20169;-93
2022/11/07 08:57:21;;;;;;;20.20;5.80;;;11.30;99.90;;;;;;5036560;28;20036;-92
2022/11/07 08:59:50;;;;;;;17.38;6.05;;;11.50;99.90;;;;;;5050881;28;20562;-91
2022/11/07 09:02:16;;;;;;;14.27;4.82;;;11.30;99.90;;;;;;5039036;28;20048;-92
2022/11/07 09:04:41;;;;;;;18.85;4.95;;;12.10;99.90;;;;;;5035961;28;20047;-93
2022/11/07 09:07:07;;;;;;;11.05;4.30;;;12.20;99.90;;;;;;5018719;28;20048;-92
2022/11/07 09:09:33;;;;;;;13.10;4.13;;;11.50;99.90;;;;;;5052345;28;20076;-89
2022/11/07 09:11:58;;;;;;;13.02;4.90;;;11.50;99.90;;;;;;5016434;28;20048;-88
2022/11/07 09:14:24;;;;;;;20.73;5.15;;;11.50;99.90;;;;;;5088086;28;20044;-93
2022/11/07 09:16:50;;;;;;;17.90;5.75;;;11.50;99.90;;;;;;5018070;28;20127;-91
2022/11/07 09:19:15;;;;;;;17.20;4.40;;;11.60;99.90;;;;;;5018404;28;20041;-92
2022/11/07 09:21:44;;;;;;;16.52;4.97;;;12.30;99.90;;;;;;5018698;28;20188;-93
2022/11/07 09:24:10;;;;;;;13.73;4.28;;;12.30;99.90;;;;;;5019058;28;20032;-92
2022/11/07 09:26:36;;;;;;;13.93;4.20;;;11.80;99.90;;;;;;5052183;28;20051;-93
2022/11/07 09:29:01;;;;;;;12.85;4.72;;;11.70;99.90;;;;;;5034407;28;20415;-91
2022/11/07 09:31:27;;;;;;;16.80;4.50;;;12.20;99.90;;;;;;5035497;28;20612;-92
2022/11/07 09:33:53;;;;;;;16.08;4.72;;;11.80;99.90;;;;;;5034460;28;20158;-92
2022/11/07 09:36:20;;;;;;;19.58;4.45;;;12.50;99.90;;;;;;5018595;28;20032;-92
2022/11/07 09:38:46;;;;;;;16.27;3.58;;;12.30;99.90;;;;;;5035169;28;20040;-92
2022/11/07 09:41:54;;;;;;;15.05;3.85;;;11.90;99.90;;;;;;5035684;28;20046;-93
2022/11/07 09:44:27;;;;;;;8.70;3.20;;;11.90;99.90;;;;;;5054585;28;20047;-88
2022/11/07 09:46:56;;;;;;;;;;;12.00;99.90;;;;;;5053091;28;20060;-88
2022/11/07 09:49:58;;;;;;;15.45;3.50;;;12.00;99.90;;;;;;5073720;28;20300;-87
2022/11/07 09:52:30;;;;;;;13.27;3.60;;;12.10;99.90;;;;;;5091444;28;20079;-88
2022/11/07 09:55:25;;;;;;;12.93;3.93;;;12.10;99.90;;;;;;5069810;28;20059;-87
2022/11/07 09:57:56;;;;;;;22.13;3.92;;;12.10;99.90;;;;;;5055061;28;20047;-87
2022/11/07 10:00:22;;;;;;;23.10;3.65;;;13.10;99.90;;;;;;5071418;28;20399;-89
2022/11/07 10:02:52;;;;;;;17.48;4.40;;;12.20;99.90;;;;;;5054028;28;20044;-87
2022/11/07 10:05:27;;;;;;;19.23;3.42;;;12.20;99.90;;;;;;5055272;28;20066;-87
2022/11/07 10:08:01;;;;;;;15.15;3.00;;;12.20;99.90;;;;;;5087840;28;20108;-88
2022/11/07 10:10:50;;;;;;;12.75;3.17;;;12.20;99.90;;;;;;5070894;28;20048;-87
2022/11/07 10:13:34;;;;;;;18.23;3.80;;;12.30;99.90;;;;;;5070206;28;20098;-87
2022/11/07 10:16:24;;;;;;;18.05;3.70;;;12.20;99.90;;;;;;5052630;28;20475;-87
2022/11/07 10:19:18;;;;;;;16.67;4.30;;;12.30;99.90;;;;;;5070693;28;20036;-87
2022/11/07 10:21:50;;;;;;;8.68;2.70;;;12.30;99.90;;;;;;5070763;28;20518;-87
2022/11/07 10:24:27;;;;;;;20.30;3.30;;;12.30;99.90;;;;;;5053223;28;20117;-87
2022/11/07 10:26:54;;;;;;;15.27;3.17;;;12.30;99.90;;;;;;5089359;28;20048;-87
2022/11/07 10:29:25;;;;;;;13.95;3.42;;;12.40;99.90;;;;;;5068761;28;20127;-88
2022/11/07 10:31:56;;;;;;;11.02;2.78;;;12.40;99.90;;;;;;5054114;28;20086;-87
2022/11/07 10:34:29;;;;;;;19.20;3.50;;;12.40;99.90;;;;;;5069766;28;20047;-87
2022/11/07 10:36:55;;;;;;;13.85;2.83;;;12.50;99.90;;;;;;5052869;28;20044;-87
2022/11/07 10:39:20;;;;;;;13.00;3.00;;;12.50;99.90;;;;;;5053762;28;20130;-87
2022/11/07 10:42:08;;;;;;;12.45;2.60;;;12.50;99.90;;;;;;5035999;28;20741;-86
2022/11/07 10:44:35;;;;;;;9.52;2.65;;;12.50;99.90;;;;;;5088216;28;20052;-87
2022/11/07 10:47:02;;;;;;;11.00;3.35;;;12.60;99.90;;;;;;5052420;28;20054;-87
2022/11/07 10:49:31;;;;;;;10.57;3.78;;;12.60;99.90;;;;;;5069819;28;20399;-87
2022/11/07 10:52:09;;;;;;;14.00;3.38;;;12.60;99.90;;;;;;5087527;28;20556;-87
2022/11/07 10:54:35;;;;;;;12.73;3.30;;;12.60;99.90;;;;;;5068447;28;20056;-87
2022/11/07 10:57:17;;;;;;;13.60;2.70;;;12.80;99.90;;;;;;5088178;28;20040;-88
2022/11/07 10:59:51;;;;;;;16.45;2.20;;;12.70;99.90;;;;;;5067992;28;20040;-88
2022/11/07 11:02:23;;;;;;;14.27;3.60;;;12.70;99.90;;;;;;5069032;28;20566;-88
2022/11/07 11:04:57;;;;;;;12.73;2.58;;;12.80;99.90;;;;;;5069915;28;20044;-87
2022/11/07 11:07:34;;;;;;;15.02;3.28;;;12.80;99.90;;;;;;5068075;28;20537;-86
2022/11/07 11:10:00;;;;;;;13.93;3.83;;;12.80;99.90;;;;;;5069204;28;20048;-87
2022/11/07 11:12:32;;;;;;;17.23;3.05;;;12.80;99.90;;;;;;5067817;28;20117;-88
2022/11/07 11:15:19;;;;;;;14.63;2.78;;;12.80;99.90;;;;;;5069409;28;20059;-88
2022/11/07 11:17:46;;;;;;;14.55;2.55;;;12.90;99.90;;;;;;5069194;28;20540;-87
2022/11/07 11:20:30;;;;;;;12.23;2.70;;;12.80;99.90;;;;;;5068030;28;20089;-87
2022/11/07 11:22:56;;;;;;;11.98;2.67;;;12.80;99.90;;;;;;5069318;28;20127;-87
2022/11/07 11:25:25;;;;;;;11.63;2.30;;;12.80;99.90;;;;;;5051219;28;20132;-88
2022/11/07 11:27:59;;;;;;;13.35;3.85;;;12.80;99.90;;;;;;5052568;28;20044;-88
2022/11/07 11:30:34;;;;;;;17.80;2.33;;;12.80;99.90;;;;;;5069117;28;20051;-87
2022/11/07 11:33:00;;;;;;;15.50;3.35;;;12.80;99.90;;;;;;5067870;28;20514;-87
2022/11/07 11:35:44;;;;;;;11.82;2.63;;;12.90;99.90;;;;;;5069758;28;20115;-89
2022/11/07 11:38:21;;;;;;;13.68;3.15;;;12.90;99.90;;;;;;5070324;28;20048;-89
2022/11/07 11:41:01;;;;;;;11.13;2.42;;;12.90;99.90;;;;;;5051951;28;20044;-89
2022/11/07 11:43:35;;;;;;;11.45;2.70;;;12.90;99.90;;;;;;5052466;28;20036;-88
2022/11/07 11:46:13;;;;;;;13.43;2.60;;;12.90;99.90;;;;;;5068321;28;20600;-89
2022/11/07 11:49:07;;;;;;;12.52;3.00;;;12.90;99.90;;;;;;5069086;28;20044;-88
2022/11/07 11:51:44;;;;;;;16.77;2.70;;;12.90;99.90;;;;;;5051694;28;20043;-88
2022/11/07 11:54:13;;;;;;;13.13;2.70;;;13.10;99.90;;;;;;5068167;28;20048;-89
2022/11/07 11:57:10;;;;;;;19.38;2.78;;;13.00;99.90;;;;;;5052625;28;20329;-89
2022/11/07 12:00:06;;;;;;;21.58;3.50;;;13.10;99.90;;;;;;5040140;28;20044;-89
2022/11/07 12:02:46;;;;;;;10.25;3.20;;;13.20;99.90;;;;;;5067793;28;20044;-88
2022/11/07 12:05:38;;;;;;;13.65;2.70;;;13.20;99.90;;;;;;5069026;28;20044;-89
2022/11/07 12:08:13;;;;;;;16.58;5.53;;;13.30;99.90;;;;;;5067167;28;20044;-89
2022/11/07 12:10:41;;;;;;;12.10;2.97;;;13.30;99.90;;;;;;5067613;28;20074;-89
2022/11/07 12:13:21;;;;;;;10.40;2.42;;;13.40;99.90;;;;;;5086119;28;20052;-89
2022/11/07 12:16:05;;;;;;;9.27;2.80;;;13.40;99.90;;;;;;5050320;28;20368;-89
2022/11/07 12:18:31;;;;;;;8.68;1.92;;;13.50;99.90;;;;;;5051991;28;20048;-88
2022/11/07 12:21:32;;;;;;;16.15;3.60;;;13.60;99.90;;;;;;5067359;28;20870;-89
2022/11/07 12:24:01;;;;;;;8.50;2.33;;;13.60;99.90;;;;;;5067407;28;20112;-90
2022/11/07 12:26:55;;;;;;;24.67;5.72;;;13.60;99.90;;;;;;5068222;28;20403;-88
2022/11/07 12:29:30;;;;;;;8.88;3.33;;;13.60;99.90;;;;;;5067016;28;20051;-89
2022/11/07 12:32:17;;;;;;;15.90;5.18;;;13.70;99.90;;;;;;5067975;28;20048;-88
2022/11/07 12:34:51;;;;;;;17.38;6.28;;;13.80;99.90;;;;;;5067830;28;20101;-88
2022/11/07 12:37:26;;;;;;;14.02;2.88;;;13.90;99.90;;;;;;5066773;28;20047;-88
2022/11/07 12:40:24;;;;;;;13.23;2.75;;;13.90;99.90;;;;;;5051638;28;20119;-89
2022/11/07 12:43:24;;;;;;;18.27;2.85;;;14.00;99.90;;;;;;5066695;28;20127;-90
2022/11/07 12:46:22;;;;;;;14.55;2.15;;;14.00;99.90;;;;;;5050516;28;20510;-89
2022/11/07 12:48:54;;;;;;;6.82;2.03;;;14.10;99.90;;;;;;5067953;28;20457;-90
2022/11/07 12:51:37;;;;;;;15.10;2.17;;;14.10;99.90;;;;;;5066765;28;20063;-91
2022/11/07 12:54:41;;;;;;;13.45;2.60;;;14.10;99.90;;;;;;5051927;28;20043;-92
2022/11/07 12:57:25;;;;;;;;;;;14.20;99.90;;;;;;5052510;28;20386;-93
2022/11/07 12:59:56;;;;;;;13.38;2.30;;;14.20;99.90;;;;;;5067556;28;20272;-96
2022/11/07 13:02:35;;;;;;;12.60;2.25;;;14.20;99.90;;;;;;5067963;28;20097;-93
2022/11/07 13:05:39;;;;;;;9.48;2.25;;;14.20;99.90;;;;;;5051626;28;20102;-92
2022/11/07 13:08:21;;;;;;;8.55;1.92;;;14.20;99.90;;;;;;5050221;28;20047;-93
2022/11/07 13:10:54;;;;;;;5.93;1.42;;;14.10;99.90;;;;;;5050772;28;20070;-92